createdAt,value
2023-02-11T00:00:12.399Z,100.00
2023-02-11T00:02:40.570Z,100.00
2023-02-11T00:05:09.069Z,100.00
2023-02-11T00:07:37.325Z,100.00
2023-02-11T00:10:07.850Z,100.00
2023-02-11T00:12:36.443Z,100.00
2023-02-11T00:15:04.771Z,100.00
2023-02-11T00:17:34.777Z,100.00
2023-02-11T00:20:02.917Z,100.00
2023-02-11T00:22:31.868Z,100.00
2023-02-11T00:24:59.949Z,100.00
2023-02-11T00:27:28.001Z,100.00
2023-02-11T00:29:56.305Z,100.00
2023-02-11T00:32:24.365Z,100.00
2023-02-11T00:34:55.456Z,100.00
2023-02-11T00:37:23.656Z,100.00
2023-02-11T00:39:51.789Z,100.00
2023-02-11T00:42:19.851Z,100.00
2023-02-11T00:44:47.956Z,100.00
2023-02-11T00:47:18.327Z,100.00
2023-02-11T00:49:46.456Z,100.00
2023-02-11T00:52:16.276Z,100.00
2023-02-11T00:54:44.468Z,100.00
2023-02-11T00:57:12.691Z,100.00
2023-02-11T00:59:41.161Z,100.00
2023-02-11T01:02:09.380Z,100.00
2023-02-11T01:04:37.523Z,100.00
2023-02-11T01:07:05.668Z,100.00
2023-02-11T01:09:35.222Z,100.00
2023-02-11T01:12:03.369Z,100.00
2023-02-11T01:14:31.478Z,100.00
2023-02-11T01:16:59.586Z,100.00
2023-02-11T01:19:27.893Z,100.00
2023-02-11T01:21:56.047Z,100.00
2023-02-11T01:24:24.309Z,100.00
2023-02-11T01:26:53.833Z,100.00
2023-02-11T01:29:22.376Z,100.00
2023-02-11T01:31:50.488Z,100.00
2023-02-11T01:34:19.019Z,100.00
2023-02-11T01:36:47.186Z,100.00
2023-02-11T01:39:15.327Z,100.00
2023-02-11T01:41:43.599Z,100.00
2023-02-11T01:44:30.119Z,100.00
2023-02-11T01:46:58.885Z,100.00
2023-02-11T01:49:30.660Z,100.00
2023-02-11T01:52:03.256Z,100.00
2023-02-11T01:54:56.767Z,100.00
2023-02-11T01:57:28.531Z,100.00
2023-02-11T02:00:13.961Z,100.00
2023-02-11T02:02:47.913Z,100.00
2023-02-11T02:05:24.277Z,100.00
2023-02-11T02:08:00.331Z,100.00
2023-02-11T02:10:29.970Z,100.00
2023-02-11T02:12:58.479Z,100.00
2023-02-11T02:15:30.311Z,100.00
2023-02-11T02:18:20.376Z,100.00
2023-02-11T02:21:24.359Z,100.00
2023-02-11T02:24:31.773Z,100.00
2023-02-11T02:27:28.777Z,100.00
2023-02-11T02:30:16.823Z,100.00
2023-02-11T02:32:56.922Z,100.00
2023-02-11T02:35:36.849Z,100.00
2023-02-11T02:38:09.761Z,100.00
2023-02-11T02:40:43.394Z,100.00
2023-02-11T02:43:12.835Z,100.00
2023-02-11T02:45:40.927Z,100.00
2023-02-11T02:48:26.089Z,100.00
2023-02-11T02:51:07.684Z,100.00
2023-02-11T02:53:46.123Z,100.00
2023-02-11T02:56:19.883Z,100.00
2023-02-11T02:59:11.201Z,100.00
2023-02-11T03:01:47.146Z,100.00
2023-02-11T03:04:24.350Z,100.00
2023-02-11T03:06:57.998Z,100.00
2023-02-11T03:09:32.158Z,100.00
2023-02-11T03:12:02.221Z,100.00
2023-02-11T03:14:31.833Z,100.00
2023-02-11T03:17:02.533Z,100.00
2023-02-11T03:19:37.669Z,100.00
2023-02-11T03:22:12.250Z,100.00
2023-02-11T03:24:42.669Z,100.00
2023-02-11T03:27:19.091Z,100.00
2023-02-11T03:29:54.867Z,100.00
2023-02-11T03:32:29.211Z,100.00
2023-02-11T03:35:02.677Z,100.00
2023-02-11T03:37:34.998Z,100.00
2023-02-11T03:40:06.402Z,100.00
2023-02-11T03:42:40.209Z,100.00
2023-02-11T03:45:11.945Z,100.00
2023-02-11T03:47:44.735Z,100.00
2023-02-11T03:50:17.318Z,100.00
2023-02-11T03:52:46.536Z,100.00
2023-02-11T03:55:18.378Z,100.00
2023-02-11T03:57:46.900Z,100.00
2023-02-11T04:00:16.043Z,100.00
2023-02-11T04:02:44.927Z,100.00
2023-02-11T04:05:17.059Z,100.00
2023-02-11T04:07:45.146Z,100.00
2023-02-11T04:10:14.018Z,100.00
2023-02-11T04:12:42.168Z,100.00
2023-02-11T04:15:11.162Z,100.00
2023-02-11T04:17:39.507Z,100.00
2023-02-11T04:20:08.007Z,100.00
2023-02-11T04:22:37.990Z,100.00
2023-02-11T04:25:07.752Z,100.00
2023-02-11T04:27:36.150Z,100.00
2023-02-11T04:30:05.605Z,100.00
2023-02-11T04:32:33.767Z,100.00
2023-02-11T04:35:02.883Z,100.00
2023-02-11T04:37:31.118Z,100.00
2023-02-11T04:40:00.571Z,100.00
2023-02-11T04:42:28.903Z,100.00
2023-02-11T04:44:57.008Z,100.00
2023-02-11T04:47:25.159Z,100.00
2023-02-11T04:49:53.219Z,100.00
2023-02-11T04:52:21.340Z,100.00
2023-02-11T04:54:49.439Z,100.00
2023-02-11T04:57:18.996Z,100.00
2023-02-11T04:59:47.074Z,100.00
2023-02-11T05:02:15.182Z,100.00
2023-02-11T05:04:43.260Z,100.00
2023-02-11T05:07:11.345Z,100.00
2023-02-11T05:09:39.466Z,100.00
2023-02-11T05:12:08.025Z,100.00
2023-02-11T05:14:37.505Z,100.00
2023-02-11T05:17:05.624Z,100.00
2023-02-11T05:19:33.873Z,100.00
2023-02-11T05:22:03.541Z,100.00
2023-02-11T05:24:32.821Z,100.00
2023-02-11T05:27:01.458Z,100.00
2023-02-11T05:29:29.639Z,100.00
2023-02-11T05:32:00.173Z,100.00
2023-02-11T05:34:28.456Z,100.00
2023-02-11T05:36:57.033Z,100.00
2023-02-11T05:39:25.157Z,100.00
2023-02-11T05:41:53.257Z,100.00
2023-02-11T05:44:21.416Z,100.00
2023-02-11T05:46:50.406Z,100.00
2023-02-11T05:49:20.134Z,100.00
2023-02-11T05:51:48.671Z,100.00
2023-02-11T05:54:17.020Z,100.00
2023-02-11T05:56:45.192Z,100.00
2023-02-11T05:59:15.390Z,100.00
2023-02-11T06:01:43.755Z,100.00
2023-02-11T06:04:11.911Z,100.00
2023-02-11T06:06:41.403Z,100.00
2023-02-11T06:09:11.554Z,100.00
2023-02-11T06:11:39.692Z,100.00
2023-02-11T06:14:08.010Z,100.00
2023-02-11T06:16:36.140Z,100.00
2023-02-11T06:19:04.268Z,100.00
2023-02-11T06:21:43.308Z,100.00
2023-02-11T06:24:13.735Z,100.00
2023-02-11T06:26:41.867Z,100.00
2023-02-11T06:29:10.155Z,100.00
2023-02-11T06:31:39.534Z,100.00
2023-02-11T06:34:08.374Z,100.00
2023-02-11T06:36:37.506Z,100.00
2023-02-11T06:39:05.705Z,100.00
2023-02-11T06:41:35.428Z,100.00
2023-02-11T06:44:03.524Z,100.00
2023-02-11T06:46:31.747Z,100.00
2023-02-11T06:48:59.867Z,100.00
2023-02-11T06:51:28.476Z,100.00
2023-02-11T06:53:56.651Z,100.00
2023-02-11T06:56:27.473Z,100.00
2023-02-11T06:58:58.081Z,100.00
2023-02-11T07:01:27.457Z,100.00
2023-02-11T07:03:56.258Z,100.00
2023-02-11T07:06:28.415Z,100.00
2023-02-11T07:08:57.353Z,100.00
2023-02-11T07:11:27.526Z,100.00
2023-02-11T07:13:58.671Z,100.00
2023-02-11T07:16:26.831Z,100.00
2023-02-11T07:18:55.014Z,100.00
2023-02-11T07:21:24.362Z,100.00
2023-02-11T07:23:52.890Z,98.03
2023-02-11T07:26:23.303Z,97.18
2023-02-11T07:28:52.460Z,97.80
2023-02-11T07:31:24.544Z,98.24
2023-02-11T07:33:54.207Z,97.85
2023-02-11T07:36:23.020Z,96.78
2023-02-11T07:38:51.533Z,97.24
2023-02-11T07:41:21.725Z,94.81
2023-02-11T07:43:49.945Z,94.21
2023-02-11T07:46:21.130Z,92.34
2023-02-11T07:48:51.091Z,91.59
2023-02-11T07:51:21.442Z,89.30
2023-02-11T07:53:50.071Z,88.12
2023-02-11T07:56:19.609Z,88.95
2023-02-11T07:58:48.087Z,86.78
2023-02-11T08:01:22.679Z,86.77
2023-02-11T08:03:53.019Z,86.26
2023-02-11T08:06:23.359Z,86.76
2023-02-11T08:08:52.061Z,87.68
2023-02-11T08:11:22.601Z,88.23
2023-02-11T08:13:51.020Z,89.39
2023-02-11T08:16:21.527Z,89.59
2023-02-11T08:18:50.679Z,87.44
2023-02-11T08:21:21.364Z,87.38
2023-02-11T08:23:49.822Z,85.56
2023-02-11T08:26:20.147Z,84.48
2023-02-11T08:28:49.491Z,80.93
2023-02-11T08:31:19.194Z,80.63
2023-02-11T08:33:47.696Z,79.07
2023-02-11T08:36:18.008Z,77.96
2023-02-11T08:38:48.096Z,74.43
2023-02-11T08:41:16.758Z,74.59
2023-02-11T08:43:46.253Z,74.45
2023-02-11T08:46:16.371Z,74.30
2023-02-11T08:48:44.765Z,72.06
2023-02-11T08:51:16.102Z,71.39
2023-02-11T08:53:44.259Z,70.22
2023-02-11T08:56:14.638Z,69.97
2023-02-11T08:58:43.620Z,66.76
2023-02-11T09:01:12.383Z,64.93
2023-02-11T09:03:40.759Z,67.22
2023-02-11T09:06:10.840Z,66.99
2023-02-11T09:08:40.323Z,66.02
2023-02-11T09:11:09.046Z,64.47
2023-02-11T09:13:39.189Z,62.65
2023-02-11T09:16:08.184Z,63.36
2023-02-11T09:18:36.375Z,65.05
2023-02-11T09:21:04.974Z,66.20
2023-02-11T09:23:34.549Z,67.65
2023-02-11T09:26:09.206Z,67.64
2023-02-11T09:28:39.143Z,68.24
2023-02-11T09:31:07.855Z,67.95
2023-02-11T09:33:36.666Z,66.56
2023-02-11T09:36:05.904Z,66.90
2023-02-11T09:38:34.650Z,62.27
2023-02-11T09:41:07.681Z,61.20
2023-02-11T09:43:45.370Z,60.19
2023-02-11T09:46:16.579Z,60.76
2023-02-11T09:48:47.802Z,59.52
2023-02-11T09:51:25.833Z,60.83
2023-02-11T09:54:04.444Z,62.44
2023-02-11T09:56:33.610Z,64.42
2023-02-11T09:59:03.237Z,65.49
2023-02-11T10:01:39.925Z,62.19
2023-02-11T10:04:20.889Z,61.30
2023-02-11T10:06:52.262Z,59.10
2023-02-11T10:09:43.474Z,60.51
2023-02-11T10:12:25.356Z,57.77
2023-02-11T10:15:13.612Z,57.85
2023-02-11T10:17:51.174Z,55.85
2023-02-11T10:20:27.205Z,54.73
2023-02-11T10:22:58.989Z,54.69
2023-02-11T10:25:29.869Z,53.35
2023-02-11T10:28:00.852Z,53.07
2023-02-11T10:30:34.583Z,51.31
2023-02-11T10:33:12.030Z,48.82
2023-02-11T10:35:40.360Z,49.35
2023-02-11T10:38:10.064Z,46.43
2023-02-11T10:40:38.232Z,46.75
2023-02-11T10:43:11.782Z,46.92
2023-02-11T10:45:44.494Z,45.59
2023-02-11T10:48:38.930Z,43.22
2023-02-11T10:51:18.430Z,44.29
2023-02-11T10:53:47.606Z,43.12
2023-02-11T10:56:24.250Z,44.10
2023-02-11T10:58:58.911Z,42.99
2023-02-11T11:01:41.850Z,42.70
2023-02-11T11:04:38.473Z,40.31
2023-02-11T11:07:20.955Z,41.31
2023-02-11T11:09:53.039Z,39.06
2023-02-11T11:12:30.402Z,38.72
2023-02-11T11:15:00.583Z,39.31
2023-02-11T11:17:30.728Z,39.11
2023-02-11T11:20:24.721Z,39.14
2023-02-11T11:22:56.050Z,39.04
2023-02-11T11:25:28.181Z,36.29
2023-02-11T11:28:00.494Z,37.25
2023-02-11T11:30:35.806Z,37.74
2023-02-11T11:33:05.793Z,37.60
2023-02-11T11:35:34.395Z,38.55
2023-02-11T11:38:05.973Z,38.67
2023-02-11T11:40:35.696Z,40.29
2023-02-11T11:43:20.243Z,40.08
2023-02-11T11:45:57.669Z,38.58
2023-02-11T11:48:32.603Z,38.22
2023-02-11T11:51:03.329Z,38.28
2023-02-11T11:53:40.425Z,39.05
2023-02-11T11:56:15.405Z,39.84
2023-02-11T11:58:43.829Z,37.13
2023-02-11T12:01:22.301Z,35.82
2023-02-11T12:04:29.084Z,35.33
2023-02-11T12:07:07.842Z,33.71
2023-02-11T12:09:45.421Z,33.79
2023-02-11T12:12:32.377Z,32.98
2023-02-11T12:15:13.080Z,32.42
2023-02-11T12:17:58.985Z,33.19
2023-02-11T12:20:36.756Z,31.86
2023-02-11T12:23:28.405Z,31.52
2023-02-11T12:26:03.981Z,31.59
2023-02-11T12:28:41.912Z,30.71
2023-02-11T12:31:20.691Z,30.95
2023-02-11T12:34:14.489Z,31.61
2023-02-11T12:37:03.449Z,31.40
2023-02-11T12:39:38.659Z,32.67
2023-02-11T12:42:42.913Z,30.77
2023-02-11T12:45:23.102Z,31.56
2023-02-11T12:48:07.172Z,32.63
2023-02-11T12:50:44.379Z,33.97
2023-02-11T12:53:32.369Z,34.79
2023-02-11T12:56:07.116Z,35.91
2023-02-11T12:58:44.910Z,35.50
2023-02-11T13:01:21.142Z,36.23
2023-02-11T13:03:55.831Z,35.08
2023-02-11T13:06:30.222Z,33.88
2023-02-11T13:09:03.653Z,33.13
2023-02-11T13:11:39.212Z,32.31
2023-02-11T13:14:12.980Z,32.10
2023-02-11T13:16:44.189Z,32.99
2023-02-11T13:19:23.057Z,32.90
2023-02-11T13:22:08.151Z,32.11
2023-02-11T13:24:45.923Z,32.05
2023-02-11T13:27:32.155Z,32.89
2023-02-11T13:30:31.266Z,33.63
2023-02-11T13:33:21.845Z,33.06
2023-02-11T13:36:20.686Z,33.11
2023-02-11T13:38:59.969Z,32.79
2023-02-11T13:41:33.849Z,32.25
2023-02-11T13:44:22.685Z,32.56
2023-02-11T13:46:56.050Z,33.07
2023-02-11T13:49:28.833Z,34.48
2023-02-11T13:51:58.251Z,34.06
2023-02-11T13:54:34.436Z,33.72
2023-02-11T13:57:27.642Z,34.69
2023-02-11T13:59:57.373Z,33.53
2023-02-11T14:02:47.772Z,34.76
2023-02-11T14:05:45.269Z,35.53
2023-02-11T14:08:39.232Z,34.62
2023-02-11T14:11:13.164Z,33.96
2023-02-11T14:14:16.650Z,33.25
2023-02-11T14:17:25.013Z,31.35
2023-02-11T14:19:53.926Z,31.20
2023-02-11T14:22:27.531Z,32.12
2023-02-11T14:24:59.449Z,32.20
2023-02-11T14:27:33.312Z,32.12
2023-02-11T14:30:28.067Z,31.75
2023-02-11T14:33:21.511Z,31.37
2023-02-11T14:36:03.078Z,31.28
2023-02-11T14:38:45.394Z,30.92
2023-02-11T14:41:22.415Z,31.32
2023-02-11T14:43:54.055Z,30.67
2023-02-11T14:46:27.871Z,30.84
2023-02-11T14:49:00.278Z,31.49
2023-02-11T14:51:31.802Z,30.19
2023-02-11T14:54:06.365Z,29.11
2023-02-11T14:56:36.659Z,28.60
2023-02-11T14:59:06.080Z,29.05
2023-02-11T15:01:42.423Z,30.39
2023-02-11T15:04:26.333Z,30.49
2023-02-11T15:06:55.781Z,31.34
2023-02-11T15:09:29.858Z,31.19
2023-02-11T15:11:59.536Z,32.84
2023-02-11T15:14:30.939Z,33.58
2023-02-11T15:17:04.277Z,34.83
2023-02-11T15:19:36.503Z,34.86
2023-02-11T15:22:07.020Z,35.40
2023-02-11T15:24:39.823Z,36.02
2023-02-11T15:27:16.407Z,36.14
2023-02-11T15:29:49.460Z,36.58
2023-02-11T15:32:22.334Z,37.08
2023-02-11T15:34:53.962Z,37.86
2023-02-11T15:37:27.728Z,38.55
2023-02-11T15:40:09.865Z,38.51
2023-02-11T15:42:52.088Z,39.49
2023-02-11T15:45:29.595Z,39.66
2023-02-11T15:48:08.037Z,40.10
2023-02-11T15:50:41.288Z,40.37
2023-02-11T15:53:24.482Z,40.76
2023-02-11T15:55:59.110Z,40.59
2023-02-11T15:58:29.983Z,40.86
2023-02-11T16:01:01.614Z,41.19
2023-02-11T16:03:34.203Z,41.05
2023-02-11T16:06:23.538Z,41.82
2023-02-11T16:09:02.739Z,42.95
2023-02-11T16:11:34.630Z,44.16
2023-02-11T16:14:24.146Z,44.03
2023-02-11T16:16:55.714Z,45.06
2023-02-11T16:19:28.144Z,46.24
2023-02-11T16:22:00.218Z,46.67
2023-02-11T16:24:32.105Z,47.40
2023-02-11T16:27:04.432Z,49.91
2023-02-11T16:29:37.212Z,49.37
2023-02-11T16:32:14.555Z,49.78
2023-02-11T16:34:46.751Z,50.13
2023-02-11T16:37:17.428Z,50.39
2023-02-11T16:39:47.870Z,50.78
2023-02-11T16:42:17.495Z,51.77
2023-02-11T16:44:47.396Z,52.29
2023-02-11T16:47:22.296Z,51.72
2023-02-11T16:49:56.247Z,51.80
2023-02-11T16:52:26.718Z,52.79
2023-02-11T16:54:57.899Z,52.42
2023-02-11T16:57:30.178Z,52.87
2023-02-11T17:00:01.092Z,54.29
2023-02-11T17:02:33.331Z,54.47
2023-02-11T17:05:06.874Z,55.75
2023-02-11T17:07:36.306Z,55.77
2023-02-11T17:10:06.356Z,56.64
2023-02-11T17:12:35.999Z,56.82
2023-02-11T17:15:07.547Z,58.17
2023-02-11T17:17:37.046Z,56.15
2023-02-11T17:20:14.610Z,59.20
2023-02-11T17:22:44.138Z,59.96
2023-02-11T17:25:13.669Z,58.67
2023-02-11T17:27:43.606Z,56.16
2023-02-11T17:30:18.850Z,56.65
2023-02-11T17:32:49.279Z,57.63
2023-02-11T17:35:19.524Z,58.86
2023-02-11T17:37:49.190Z,60.01
2023-02-11T17:40:18.939Z,59.98
2023-02-11T17:42:48.810Z,60.31
2023-02-11T17:45:22.368Z,61.99
2023-02-11T17:47:53.001Z,62.22
2023-02-11T17:50:26.131Z,62.33
2023-02-11T17:52:57.598Z,62.65
2023-02-11T17:55:27.370Z,62.62
2023-02-11T17:57:57.325Z,62.13
2023-02-11T18:00:31.336Z,62.24
2023-02-11T18:03:03.021Z,60.89
2023-02-11T18:05:40.749Z,58.76
2023-02-11T18:08:11.471Z,58.71
2023-02-11T18:10:43.462Z,59.07
2023-02-11T18:13:13.922Z,58.70
2023-02-11T18:15:43.311Z,58.80
2023-02-11T18:18:13.492Z,60.62
2023-02-11T18:20:44.696Z,61.24
2023-02-11T18:23:14.707Z,61.87
2023-02-11T18:25:44.738Z,62.93
2023-02-11T18:28:14.325Z,64.16
2023-02-11T18:30:44.650Z,64.83
2023-02-11T18:33:15.030Z,65.21
2023-02-11T18:35:47.751Z,65.82
2023-02-11T18:38:18.774Z,66.44
2023-02-11T18:40:51.155Z,66.52
2023-02-11T18:43:24.141Z,67.12
2023-02-11T18:45:54.196Z,66.77
2023-02-11T18:48:25.724Z,66.73
2023-02-11T18:51:00.592Z,66.79
2023-02-11T18:53:30.839Z,66.75
2023-02-11T18:56:01.923Z,66.79
2023-02-11T18:58:32.021Z,67.57
2023-02-11T19:01:02.374Z,67.49
2023-02-11T19:03:32.781Z,67.69
2023-02-11T19:06:06.059Z,68.22
2023-02-11T19:08:36.886Z,69.37
2023-02-11T19:11:07.546Z,69.37
2023-02-11T19:13:40.455Z,70.42
2023-02-11T19:16:14.668Z,72.73
2023-02-11T19:18:44.679Z,71.65
2023-02-11T19:21:17.115Z,73.14
2023-02-11T19:23:46.960Z,73.46
2023-02-11T19:26:18.271Z,73.67
2023-02-11T19:28:49.226Z,75.05
2023-02-11T19:31:18.489Z,74.27
2023-02-11T19:33:47.923Z,75.45
2023-02-11T19:36:22.793Z,74.42
2023-02-11T19:38:52.014Z,74.44
2023-02-11T19:41:23.953Z,74.59
2023-02-11T19:43:54.189Z,74.78
2023-02-11T19:46:25.835Z,74.44
2023-02-11T19:48:58.045Z,75.37
2023-02-11T19:51:30.420Z,75.24
2023-02-11T19:54:01.804Z,76.37
2023-02-11T19:56:32.011Z,76.64
2023-02-11T19:59:03.767Z,76.93
2023-02-11T20:01:33.216Z,78.65
2023-02-11T20:04:03.964Z,78.16
2023-02-11T20:06:35.679Z,78.59
2023-02-11T20:09:08.264Z,79.08
2023-02-11T20:11:39.460Z,80.29
2023-02-11T20:14:11.098Z,79.89
2023-02-11T20:16:48.675Z,80.82
2023-02-11T20:19:22.753Z,82.49
2023-02-11T20:21:56.720Z,82.23
2023-02-11T20:24:27.391Z,83.11
2023-02-11T20:26:59.458Z,83.54
2023-02-11T20:29:31.748Z,83.37
2023-02-11T20:32:03.557Z,84.18
2023-02-11T20:34:33.887Z,84.50
2023-02-11T20:37:05.442Z,85.56
2023-02-11T20:39:36.260Z,85.82
2023-02-11T20:42:10.185Z,85.65
2023-02-11T20:44:40.018Z,86.62
2023-02-11T20:47:09.054Z,87.16
2023-02-11T20:49:39.736Z,86.75
2023-02-11T20:52:12.702Z,86.96
2023-02-11T20:54:43.863Z,87.64
2023-02-11T20:57:15.634Z,88.09
2023-02-11T20:59:46.873Z,87.76
2023-02-11T21:02:15.915Z,88.10
2023-02-11T21:04:46.917Z,88.78
2023-02-11T21:07:20.915Z,88.04
2023-02-11T21:09:50.511Z,89.17
2023-02-11T21:12:23.369Z,88.60
2023-02-11T21:14:54.719Z,88.56
2023-02-11T21:17:26.836Z,89.08
2023-02-11T21:19:56.502Z,88.10
2023-02-11T21:22:27.524Z,89.30
2023-02-11T21:24:57.103Z,89.12
2023-02-11T21:27:31.670Z,89.39
2023-02-11T21:30:02.244Z,89.72
2023-02-11T21:32:33.042Z,89.94
2023-02-11T21:35:02.531Z,89.41
2023-02-11T21:37:34.065Z,90.54
2023-02-11T21:40:03.528Z,90.52
2023-02-11T21:42:33.140Z,90.49
2023-02-11T21:45:02.176Z,89.60
2023-02-11T21:47:31.607Z,90.90
2023-02-11T21:50:00.800Z,91.71
2023-02-11T21:52:32.173Z,91.63
2023-02-11T21:55:02.389Z,91.43
2023-02-11T21:57:31.920Z,91.28
2023-02-11T22:00:00.638Z,92.32
2023-02-11T22:02:29.002Z,92.21
2023-02-11T22:04:58.065Z,93.45
2023-02-11T22:07:28.187Z,93.22
2023-02-11T22:09:57.264Z,93.07
2023-02-11T22:12:27.492Z,92.64
2023-02-11T22:14:56.366Z,91.75
2023-02-11T22:17:25.118Z,92.74
2023-02-11T22:19:53.281Z,92.26
2023-02-11T22:22:21.615Z,94.04
2023-02-11T22:24:50.013Z,92.44
2023-02-11T22:27:20.243Z,92.51
2023-02-11T22:29:49.870Z,93.61
2023-02-11T22:32:18.601Z,93.58
2023-02-11T22:34:47.017Z,93.94
2023-02-11T22:37:15.388Z,94.28
2023-02-11T22:39:43.835Z,94.68
2023-02-11T22:42:12.111Z,94.52
2023-02-11T22:44:40.136Z,94.39
2023-02-11T22:47:09.712Z,94.72
2023-02-11T22:49:39.581Z,94.94
2023-02-11T22:52:07.714Z,95.42
2023-02-11T22:54:36.221Z,96.03
2023-02-11T22:57:04.477Z,96.17
2023-02-11T22:59:32.598Z,96.25
2023-02-11T23:02:00.754Z,96.25
2023-02-11T23:04:30.863Z,94.15
2023-02-11T23:06:58.982Z,95.21
2023-02-11T23:09:27.132Z,94.08
2023-02-11T23:11:55.670Z,93.47
2023-02-11T23:14:24.406Z,93.31
2023-02-11T23:16:52.622Z,92.31
2023-02-11T23:19:20.930Z,92.82
2023-02-11T23:21:52.650Z,92.30
2023-02-11T23:24:20.863Z,93.29
2023-02-11T23:26:48.922Z,93.65
2023-02-11T23:29:17.098Z,93.46
2023-02-11T23:31:46.583Z,93.01
2023-02-11T23:34:17.274Z,94.00
2023-02-11T23:36:45.430Z,93.72
2023-02-11T23:39:17.983Z,93.63
2023-02-11T23:41:46.825Z,94.24
2023-02-11T23:44:15.060Z,94.50
2023-02-11T23:46:43.219Z,94.89
2023-02-11T23:49:11.347Z,94.01
2023-02-11T23:51:39.468Z,94.73
2023-02-11T23:54:07.551Z,95.66
2023-02-11T23:56:38.089Z,94.99
2023-02-11T23:59:07.007Z,94.94
